sensor_id;sensor_type;location;lat;lon;timestamp;temperature;humidity
66728;DHT22;53641;44.274;19.890;2023-11-19T00:01:55;7.70;83.60
66728;DHT22;53641;44.274;19.890;2023-11-19T00:04:22;7.70;83.70
66728;DHT22;53641;44.274;19.890;2023-11-19T00:06:48;7.70;84.10
66728;DHT22;53641;44.274;19.890;2023-11-19T00:09:13;7.70;84.30
66728;DHT22;53641;44.274;19.890;2023-11-19T00:11:42;7.70;84.50
66728;DHT22;53641;44.274;19.890;2023-11-19T00:14:07;7.70;83.70
66728;DHT22;53641;44.274;19.890;2023-11-19T00:16:34;7.60;84.30
66728;DHT22;53641;44.274;19.890;2023-11-19T00:19:00;7.50;83.60
66728;DHT22;53641;44.274;19.890;2023-11-19T00:21:25;7.50;83.90
66728;DHT22;53641;44.274;19.890;2023-11-19T00:23:54;7.40;84.20
66728;DHT22;53641;44.274;19.890;2023-11-19T00:26:19;7.30;84.30
66728;DHT22;53641;44.274;19.890;2023-11-19T00:28:45;7.30;85.20
66728;DHT22;53641;44.274;19.890;2023-11-19T00:31:13;7.30;85.20
66728;DHT22;53641;44.274;19.890;2023-11-19T00:33:38;7.30;85.00
66728;DHT22;53641;44.274;19.890;2023-11-19T00:36:05;7.30;85.40
66728;DHT22;53641;44.274;19.890;2023-11-19T00:38:30;7.30;85.80
66728;DHT22;53641;44.274;19.890;2023-11-19T00:40:56;7.30;86.00
66728;DHT22;53641;44.274;19.890;2023-11-19T00:43:22;7.20;85.80
66728;DHT22;53641;44.274;19.890;2023-11-19T00:45:47;7.20;85.50
66728;DHT22;53641;44.274;19.890;2023-11-19T00:48:15;7.20;85.70
66728;DHT22;53641;44.274;19.890;2023-11-19T00:50:41;7.30;85.50
66728;DHT22;53641;44.274;19.890;2023-11-19T00:53:09;7.40;85.20
66728;DHT22;53641;44.274;19.890;2023-11-19T00:55:37;7.40;85.10
66728;DHT22;53641;44.274;19.890;2023-11-19T00:58:02;7.40;85.10
66728;DHT22;53641;44.274;19.890;2023-11-19T01:00:28;7.40;86.10
66728;DHT22;53641;44.274;19.890;2023-11-19T01:02:54;7.40;85.80
66728;DHT22;53641;44.274;19.890;2023-11-19T01:05:20;7.40;86.00
66728;DHT22;53641;44.274;19.890;2023-11-19T01:07:48;7.40;85.90
66728;DHT22;53641;44.274;19.890;2023-11-19T01:10:14;7.50;86.50
66728;DHT22;53641;44.274;19.890;2023-11-19T01:12:41;7.50;86.00
66728;DHT22;53641;44.274;19.890;2023-11-19T01:15:07;7.50;86.20
66728;DHT22;53641;44.274;19.890;2023-11-19T01:17:33;7.50;86.60
66728;DHT22;53641;44.274;19.890;2023-11-19T01:19:59;7.60;85.90
66728;DHT22;53641;44.274;19.890;2023-11-19T01:22:24;7.60;86.20
66728;DHT22;53641;44.274;19.890;2023-11-19T01:24:52;7.60;86.00
66728;DHT22;53641;44.274;19.890;2023-11-19T01:27:22;7.60;85.70
66728;DHT22;53641;44.274;19.890;2023-11-19T01:29:48;7.70;85.60
66728;DHT22;53641;44.274;19.890;2023-11-19T01:32:13;7.70;85.30
66728;DHT22;53641;44.274;19.890;2023-11-19T01:34:40;7.80;85.90
66728;DHT22;53641;44.274;19.890;2023-11-19T01:37:06;7.90;85.50
66728;DHT22;53641;44.274;19.890;2023-11-19T01:39:31;7.90;85.80
66728;DHT22;53641;44.274;19.890;2023-11-19T01:41:57;7.90;85.10
66728;DHT22;53641;44.274;19.890;2023-11-19T01:44:23;7.90;84.50
66728;DHT22;53641;44.274;19.890;2023-11-19T01:46:48;7.90;85.20
66728;DHT22;53641;44.274;19.890;2023-11-19T01:49:14;7.90;84.90
66728;DHT22;53641;44.274;19.890;2023-11-19T01:51:40;7.80;84.80
66728;DHT22;53641;44.274;19.890;2023-11-19T01:54:06;7.80;85.50
66728;DHT22;53641;44.274;19.890;2023-11-19T01:56:32;7.80;85.70
66728;DHT22;53641;44.274;19.890;2023-11-19T01:58:59;7.90;86.00
66728;DHT22;53641;44.274;19.890;2023-11-19T02:01:24;7.70;85.40
66728;DHT22;53641;44.274;19.890;2023-11-19T02:03:51;7.80;85.50
66728;DHT22;53641;44.274;19.890;2023-11-19T02:06:16;7.80;85.30
66728;DHT22;53641;44.274;19.890;2023-11-19T02:08:42;7.70;85.50
66728;DHT22;53641;44.274;19.890;2023-11-19T02:11:08;7.80;85.30
66728;DHT22;53641;44.274;19.890;2023-11-19T02:13:34;7.80;85.60
66728;DHT22;53641;44.274;19.890;2023-11-19T02:16:02;7.80;84.80
66728;DHT22;53641;44.274;19.890;2023-11-19T02:18:29;7.80;85.10
66728;DHT22;53641;44.274;19.890;2023-11-19T02:20:58;7.90;84.60
66728;DHT22;53641;44.274;19.890;2023-11-19T02:23:26;7.80;84.60
66728;DHT22;53641;44.274;19.890;2023-11-19T02:26:13;7.90;84.50
66728;DHT22;53641;44.274;19.890;2023-11-19T02:28:39;7.90;84.70
66728;DHT22;53641;44.274;19.890;2023-11-19T02:31:05;7.80;84.40
66728;DHT22;53641;44.274;19.890;2023-11-19T02:33:37;7.70;84.50
66728;DHT22;53641;44.274;19.890;2023-11-19T02:36:04;7.70;84.80
66728;DHT22;53641;44.274;19.890;2023-11-19T02:38:30;7.70;85.00
66728;DHT22;53641;44.274;19.890;2023-11-19T02:40:56;7.80;84.70
66728;DHT22;53641;44.274;19.890;2023-11-19T02:43:22;7.80;85.30
66728;DHT22;53641;44.274;19.890;2023-11-19T02:45:48;7.70;85.10
66728;DHT22;53641;44.274;19.890;2023-11-19T02:48:13;7.70;85.60
66728;DHT22;53641;44.274;19.890;2023-11-19T02:50:41;7.60;85.90
66728;DHT22;53641;44.274;19.890;2023-11-19T02:53:07;7.70;85.30
66728;DHT22;53641;44.274;19.890;2023-11-19T02:55:33;7.60;86.10
66728;DHT22;53641;44.274;19.890;2023-11-19T02:58:03;7.60;85.40
66728;DHT22;53641;44.274;19.890;2023-11-19T03:00:34;7.60;85.60
66728;DHT22;53641;44.274;19.890;2023-11-19T03:03:12;7.50;85.80
66728;DHT22;53641;44.274;19.890;2023-11-19T03:05:51;7.50;86.30
66728;DHT22;53641;44.274;19.890;2023-11-19T03:08:17;7.60;86.30
66728;DHT22;53641;44.274;19.890;2023-11-19T03:10:42;7.50;86.50
66728;DHT22;53641;44.274;19.890;2023-11-19T03:13:12;7.50;85.80
66728;DHT22;53641;44.274;19.890;2023-11-19T03:15:41;7.50;85.60
66728;DHT22;53641;44.274;19.890;2023-11-19T03:18:07;7.60;86.00
66728;DHT22;53641;44.274;19.890;2023-11-19T03:20:32;7.50;86.20
66728;DHT22;53641;44.274;19.890;2023-11-19T03:22:58;7.60;86.20
66728;DHT22;53641;44.274;19.890;2023-11-19T03:25:25;7.50;85.70
66728;DHT22;53641;44.274;19.890;2023-11-19T03:27:59;7.60;86.00
66728;DHT22;53641;44.274;19.890;2023-11-19T03:30:26;7.50;85.90
66728;DHT22;53641;44.274;19.890;2023-11-19T03:32:51;7.40;86.30
66728;DHT22;53641;44.274;19.890;2023-11-19T03:35:17;7.40;86.70
66728;DHT22;53641;44.274;19.890;2023-11-19T03:37:43;7.50;86.70
66728;DHT22;53641;44.274;19.890;2023-11-19T03:40:09;7.50;86.20
66728;DHT22;53641;44.274;19.890;2023-11-19T03:42:35;7.50;87.30
66728;DHT22;53641;44.274;19.890;2023-11-19T03:45:01;7.40;86.20
66728;DHT22;53641;44.274;19.890;2023-11-19T03:47:29;7.40;87.00
66728;DHT22;53641;44.274;19.890;2023-11-19T03:49:54;7.40;86.70
66728;DHT22;53641;44.274;19.890;2023-11-19T03:52:20;7.40;87.10
66728;DHT22;53641;44.274;19.890;2023-11-19T03:54:46;7.40;87.20
66728;DHT22;53641;44.274;19.890;2023-11-19T03:57:12;7.20;87.40
66728;DHT22;53641;44.274;19.890;2023-11-19T03:59:38;7.20;88.30
66728;DHT22;53641;44.274;19.890;2023-11-19T04:02:03;7.00;88.00
66728;DHT22;53641;44.274;19.890;2023-11-19T04:04:29;7.00;88.70
66728;DHT22;53641;44.274;19.890;2023-11-19T04:06:55;6.90;89.40
66728;DHT22;53641;44.274;19.890;2023-11-19T04:09:21;6.80;89.60
66728;DHT22;53641;44.274;19.890;2023-11-19T04:11:46;6.70;89.80
66728;DHT22;53641;44.274;19.890;2023-11-19T04:14:15;6.70;90.10
66728;DHT22;53641;44.274;19.890;2023-11-19T04:16:43;6.50;90.00
66728;DHT22;53641;44.274;19.890;2023-11-19T04:19:10;6.50;90.20
66728;DHT22;53641;44.274;19.890;2023-11-19T04:21:35;6.50;90.10
66728;DHT22;53641;44.274;19.890;2023-11-19T04:24:01;6.40;90.40
66728;DHT22;53641;44.274;19.890;2023-11-19T04:26:27;6.30;90.50
66728;DHT22;53641;44.274;19.890;2023-11-19T04:28:56;6.20;90.60
66728;DHT22;53641;44.274;19.890;2023-11-19T04:31:22;6.10;90.80
66728;DHT22;53641;44.274;19.890;2023-11-19T04:33:47;6.00;91.00
66728;DHT22;53641;44.274;19.890;2023-11-19T04:36:13;5.90;91.10
66728;DHT22;53641;44.274;19.890;2023-11-19T04:38:44;5.80;91.30
66728;DHT22;53641;44.274;19.890;2023-11-19T04:41:10;5.70;91.50
66728;DHT22;53641;44.274;19.890;2023-11-19T04:43:36;5.60;91.60
66728;DHT22;53641;44.274;19.890;2023-11-19T04:46:03;5.60;91.60
66728;DHT22;53641;44.274;19.890;2023-11-19T04:48:29;5.60;91.80
66728;DHT22;53641;44.274;19.890;2023-11-19T04:50:54;5.60;92.20
66728;DHT22;53641;44.274;19.890;2023-11-19T04:53:20;5.50;92.20
66728;DHT22;53641;44.274;19.890;2023-11-19T04:55:46;5.40;92.50
66728;DHT22;53641;44.274;19.890;2023-11-19T04:58:11;5.50;92.70
66728;DHT22;53641;44.274;19.890;2023-11-19T05:00:37;5.40;92.70
66728;DHT22;53641;44.274;19.890;2023-11-19T05:03:02;5.50;92.80
66728;DHT22;53641;44.274;19.890;2023-11-19T05:05:28;5.50;92.60
66728;DHT22;53641;44.274;19.890;2023-11-19T05:07:54;5.50;92.80
66728;DHT22;53641;44.274;19.890;2023-11-19T05:10:20;5.30;92.70
66728;DHT22;53641;44.274;19.890;2023-11-19T05:12:46;5.40;92.70
66728;DHT22;53641;44.274;19.890;2023-11-19T05:15:11;5.30;93.10
66728;DHT22;53641;44.274;19.890;2023-11-19T05:17:37;5.30;93.40
66728;DHT22;53641;44.274;19.890;2023-11-19T05:20:06;5.20;93.10
66728;DHT22;53641;44.274;19.890;2023-11-19T05:22:41;5.20;93.50
66728;DHT22;53641;44.274;19.890;2023-11-19T05:25:07;5.20;93.30
66728;DHT22;53641;44.274;19.890;2023-11-19T05:27:34;5.20;93.10
66728;DHT22;53641;44.274;19.890;2023-11-19T05:30:01;5.30;93.20
66728;DHT22;53641;44.274;19.890;2023-11-19T05:32:27;5.20;93.10
66728;DHT22;53641;44.274;19.890;2023-11-19T05:34:52;5.10;93.00
66728;DHT22;53641;44.274;19.890;2023-11-19T05:37:18;5.00;93.10
66728;DHT22;53641;44.274;19.890;2023-11-19T05:39:44;5.00;92.90
66728;DHT22;53641;44.274;19.890;2023-11-19T05:42:10;5.00;92.80
66728;DHT22;53641;44.274;19.890;2023-11-19T05:44:36;5.00;92.70
66728;DHT22;53641;44.274;19.890;2023-11-19T05:47:02;4.90;92.60
66728;DHT22;53641;44.274;19.890;2023-11-19T05:49:27;4.90;92.60
66728;DHT22;53641;44.274;19.890;2023-11-19T05:51:53;4.80;92.60
66728;DHT22;53641;44.274;19.890;2023-11-19T05:54:21;4.90;92.50
66728;DHT22;53641;44.274;19.890;2023-11-19T05:56:49;4.90;92.60
66728;DHT22;53641;44.274;19.890;2023-11-19T05:59:15;4.90;92.50
66728;DHT22;53641;44.274;19.890;2023-11-19T06:01:43;4.90;92.30
66728;DHT22;53641;44.274;19.890;2023-11-19T06:04:09;4.90;92.30
66728;DHT22;53641;44.274;19.890;2023-11-19T06:06:35;4.90;92.20
66728;DHT22;53641;44.274;19.890;2023-11-19T06:09:01;4.80;92.20
66728;DHT22;53641;44.274;19.890;2023-11-19T06:11:27;4.70;92.40
66728;DHT22;53641;44.274;19.890;2023-11-19T06:13:53;4.70;92.20
66728;DHT22;53641;44.274;19.890;2023-11-19T06:16:19;4.70;92.50
66728;DHT22;53641;44.274;19.890;2023-11-19T06:18:44;4.70;92.40
66728;DHT22;53641;44.274;19.890;2023-11-19T06:21:10;4.80;92.40
66728;DHT22;53641;44.274;19.890;2023-11-19T06:23:36;4.80;92.20
66728;DHT22;53641;44.274;19.890;2023-11-19T06:26:02;4.70;91.90
66728;DHT22;53641;44.274;19.890;2023-11-19T06:28:28;4.70;92.10
66728;DHT22;53641;44.274;19.890;2023-11-19T06:30:54;4.70;92.20
66728;DHT22;53641;44.274;19.890;2023-11-19T06:33:19;4.70;92.40
66728;DHT22;53641;44.274;19.890;2023-11-19T06:35:45;4.80;92.30
66728;DHT22;53641;44.274;19.890;2023-11-19T06:38:11;4.80;92.40
66728;DHT22;53641;44.274;19.890;2023-11-19T06:40:36;4.80;92.40
66728;DHT22;53641;44.274;19.890;2023-11-19T06:43:02;4.90;92.40
66728;DHT22;53641;44.274;19.890;2023-11-19T06:45:33;5.00;92.10
66728;DHT22;53641;44.274;19.890;2023-11-19T06:48:03;5.00;92.10
66728;DHT22;53641;44.274;19.890;2023-11-19T06:50:29;5.10;92.30
66728;DHT22;53641;44.274;19.890;2023-11-19T06:52:55;5.10;92.40
66728;DHT22;53641;44.274;19.890;2023-11-19T06:55:20;5.10;92.40
66728;DHT22;53641;44.274;19.890;2023-11-19T06:57:46;5.30;92.40
66728;DHT22;53641;44.274;19.890;2023-11-19T07:00:12;5.40;92.10
66728;DHT22;53641;44.274;19.890;2023-11-19T07:02:37;5.50;91.80
66728;DHT22;53641;44.274;19.890;2023-11-19T07:05:03;5.90;91.70
66728;DHT22;53641;44.274;19.890;2023-11-19T07:07:30;6.30;91.20
66728;DHT22;53641;44.274;19.890;2023-11-19T07:09:56;6.90;90.70
66728;DHT22;53641;44.274;19.890;2023-11-19T07:12:21;7.40;89.90
66728;DHT22;53641;44.274;19.890;2023-11-19T07:14:47;7.90;88.80
66728;DHT22;53641;44.274;19.890;2023-11-19T07:17:12;8.30;87.80
66728;DHT22;53641;44.274;19.890;2023-11-19T07:19:38;8.70;85.90
66728;DHT22;53641;44.274;19.890;2023-11-19T07:22:04;9.00;84.80
66728;DHT22;53641;44.274;19.890;2023-11-19T07:24:31;9.20;84.50
66728;DHT22;53641;44.274;19.890;2023-11-19T07:26:57;9.50;83.40
66728;DHT22;53641;44.274;19.890;2023-11-19T07:29:22;9.70;83.00
66728;DHT22;53641;44.274;19.890;2023-11-19T07:31:48;10.00;82.10
66728;DHT22;53641;44.274;19.890;2023-11-19T07:34:14;10.30;80.70
66728;DHT22;53641;44.274;19.890;2023-11-19T07:36:40;10.50;78.20
66728;DHT22;53641;44.274;19.890;2023-11-19T07:39:06;10.60;80.40
66728;DHT22;53641;44.274;19.890;2023-11-19T07:41:31;11.00;78.80
66728;DHT22;53641;44.274;19.890;2023-11-19T07:43:57;11.10;78.20
66728;DHT22;53641;44.274;19.890;2023-11-19T07:46:23;11.40;77.20
66728;DHT22;53641;44.274;19.890;2023-11-19T07:48:48;11.50;77.50
66728;DHT22;53641;44.274;19.890;2023-11-19T07:51:14;11.80;77.80
66728;DHT22;53641;44.274;19.890;2023-11-19T07:53:40;11.90;77.20
66728;DHT22;53641;44.274;19.890;2023-11-19T07:56:06;12.00;75.10
66728;DHT22;53641;44.274;19.890;2023-11-19T07:58:32;12.00;76.10
66728;DHT22;53641;44.274;19.890;2023-11-19T08:00:57;12.10;75.10
66728;DHT22;53641;44.274;19.890;2023-11-19T08:03:23;12.00;74.80
66728;DHT22;53641;44.274;19.890;2023-11-19T08:05:49;12.00;73.20
66728;DHT22;53641;44.274;19.890;2023-11-19T08:08:14;12.10;72.70
66728;DHT22;53641;44.274;19.890;2023-11-19T08:10:40;12.10;72.00
66728;DHT22;53641;44.274;19.890;2023-11-19T08:13:06;12.20;71.70
66728;DHT22;53641;44.274;19.890;2023-11-19T08:15:31;12.30;72.10
66728;DHT22;53641;44.274;19.890;2023-11-19T08:17:57;12.10;71.30
66728;DHT22;53641;44.274;19.890;2023-11-19T08:20:23;12.00;71.90
66728;DHT22;53641;44.274;19.890;2023-11-19T08:22:49;11.80;71.40
66728;DHT22;53641;44.274;19.890;2023-11-19T08:25:14;11.70;74.10
66728;DHT22;53641;44.274;19.890;2023-11-19T08:27:40;11.60;72.20
66728;DHT22;53641;44.274;19.890;2023-11-19T08:30:06;11.30;72.70
66728;DHT22;53641;44.274;19.890;2023-11-19T08:32:32;10.90;73.00
66728;DHT22;53641;44.274;19.890;2023-11-19T08:34:57;10.70;73.90
66728;DHT22;53641;44.274;19.890;2023-11-19T08:37:23;10.60;73.40
66728;DHT22;53641;44.274;19.890;2023-11-19T08:39:49;10.60;73.80
66728;DHT22;53641;44.274;19.890;2023-11-19T08:42:15;10.60;74.90
66728;DHT22;53641;44.274;19.890;2023-11-19T08:44:41;10.60;74.20
66728;DHT22;53641;44.274;19.890;2023-11-19T08:47:12;10.30;73.80
66728;DHT22;53641;44.274;19.890;2023-11-19T08:49:38;10.10;74.80
66728;DHT22;53641;44.274;19.890;2023-11-19T08:52:04;10.20;75.50
66728;DHT22;53641;44.274;19.890;2023-11-19T08:54:30;10.10;75.30
66728;DHT22;53641;44.274;19.890;2023-11-19T08:56:56;10.10;74.40
66728;DHT22;53641;44.274;19.890;2023-11-19T08:59:21;10.20;74.80
66728;DHT22;53641;44.274;19.890;2023-11-19T09:01:47;10.30;75.00
66728;DHT22;53641;44.274;19.890;2023-11-19T09:04:13;10.50;74.90
66728;DHT22;53641;44.274;19.890;2023-11-19T09:06:39;10.30;74.60
66728;DHT22;53641;44.274;19.890;2023-11-19T09:09:05;10.00;74.30
66728;DHT22;53641;44.274;19.890;2023-11-19T09:11:31;10.10;75.60
66728;DHT22;53641;44.274;19.890;2023-11-19T09:13:57;10.30;75.70
66728;DHT22;53641;44.274;19.890;2023-11-19T09:16:22;10.10;74.30
66728;DHT22;53641;44.274;19.890;2023-11-19T09:18:48;10.20;74.60
66728;DHT22;53641;44.274;19.890;2023-11-19T09:21:14;10.10;75.00
66728;DHT22;53641;44.274;19.890;2023-11-19T09:23:39;9.80;75.10
66728;DHT22;53641;44.274;19.890;2023-11-19T09:26:05;9.80;75.60
66728;DHT22;53641;44.274;19.890;2023-11-19T09:28:31;9.90;75.70
66728;DHT22;53641;44.274;19.890;2023-11-19T09:30:57;9.80;75.20
66728;DHT22;53641;44.274;19.890;2023-11-19T09:33:24;9.90;75.10
66728;DHT22;53641;44.274;19.890;2023-11-19T09:35:50;10.00;75.30
66728;DHT22;53641;44.274;19.890;2023-11-19T09:38:16;10.00;75.10
66728;DHT22;53641;44.274;19.890;2023-11-19T09:40:42;10.10;74.10
66728;DHT22;53641;44.274;19.890;2023-11-19T09:43:08;10.50;74.90
66728;DHT22;53641;44.274;19.890;2023-11-19T09:45:39;10.80;73.10
66728;DHT22;53641;44.274;19.890;2023-11-19T09:48:10;11.00;73.40
66728;DHT22;53641;44.274;19.890;2023-11-19T09:50:36;11.20;72.40
66728;DHT22;53641;44.274;19.890;2023-11-19T09:53:02;11.40;72.50
66728;DHT22;53641;44.274;19.890;2023-11-19T09:55:28;11.50;71.90
66728;DHT22;53641;44.274;19.890;2023-11-19T09:57:54;11.60;71.60
66728;DHT22;53641;44.274;19.890;2023-11-19T10:00:20;11.70;71.30
66728;DHT22;53641;44.274;19.890;2023-11-19T10:02:46;11.60;72.30
66728;DHT22;53641;44.274;19.890;2023-11-19T10:05:12;11.40;71.40
66728;DHT22;53641;44.274;19.890;2023-11-19T10:07:40;11.20;71.40
66728;DHT22;53641;44.274;19.890;2023-11-19T10:10:05;11.30;71.40
66728;DHT22;53641;44.274;19.890;2023-11-19T10:12:31;11.40;72.30
66728;DHT22;53641;44.274;19.890;2023-11-19T10:14:57;11.50;72.00
66728;DHT22;53641;44.274;19.890;2023-11-19T10:17:33;11.60;71.30
66728;DHT22;53641;44.274;19.890;2023-11-19T10:19:59;11.80;71.50
66728;DHT22;53641;44.274;19.890;2023-11-19T10:22:27;12.00;71.80
66728;DHT22;53641;44.274;19.890;2023-11-19T10:24:53;12.10;70.00
66728;DHT22;53641;44.274;19.890;2023-11-19T10:27:18;12.00;70.10
66728;DHT22;53641;44.274;19.890;2023-11-19T10:29:45;12.10;70.60
66728;DHT22;53641;44.274;19.890;2023-11-19T10:32:11;12.10;69.90
66728;DHT22;53641;44.274;19.890;2023-11-19T10:34:37;12.20;70.10
66728;DHT22;53641;44.274;19.890;2023-11-19T10:37:05;12.20;69.90
66728;DHT22;53641;44.274;19.890;2023-11-19T10:39:38;12.10;69.90
66728;DHT22;53641;44.274;19.890;2023-11-19T10:42:16;12.20;68.40
66728;DHT22;53641;44.274;19.890;2023-11-19T10:44:42;12.00;67.90
66728;DHT22;53641;44.274;19.890;2023-11-19T10:47:08;12.00;69.30
66728;DHT22;53641;44.274;19.890;2023-11-19T10:49:34;12.30;69.60
66728;DHT22;53641;44.274;19.890;2023-11-19T10:52:00;12.40;68.80
66728;DHT22;53641;44.274;19.890;2023-11-19T10:54:27;12.50;68.70
66728;DHT22;53641;44.274;19.890;2023-11-19T10:56:58;12.60;69.00
66728;DHT22;53641;44.274;19.890;2023-11-19T10:59:24;12.60;67.80
66728;DHT22;53641;44.274;19.890;2023-11-19T11:01:52;12.30;67.70
66728;DHT22;53641;44.274;19.890;2023-11-19T11:04:19;12.40;68.00
66728;DHT22;53641;44.274;19.890;2023-11-19T11:06:47;12.50;69.30
66728;DHT22;53641;44.274;19.890;2023-11-19T11:09:13;12.50;68.10
66728;DHT22;53641;44.274;19.890;2023-11-19T11:11:40;12.50;67.60
66728;DHT22;53641;44.274;19.890;2023-11-19T11:14:10;12.70;67.80
66728;DHT22;53641;44.274;19.890;2023-11-19T11:16:37;12.80;69.50
66728;DHT22;53641;44.274;19.890;2023-11-19T11:19:06;13.00;68.00
66728;DHT22;53641;44.274;19.890;2023-11-19T11:21:32;12.80;66.30
66728;DHT22;53641;44.274;19.890;2023-11-19T11:25:18;12.50;66.60
66728;DHT22;53641;44.274;19.890;2023-11-19T11:27:23;12.60;67.50
66728;DHT22;53641;44.274;19.890;2023-11-19T11:29:40;12.40;67.10
66728;DHT22;53641;44.274;19.890;2023-11-19T11:33:32;12.30;68.10
66728;DHT22;53641;44.274;19.890;2023-11-19T11:35:03;12.30;67.60
66728;DHT22;53641;44.274;19.890;2023-11-19T11:37:44;12.50;67.90
66728;DHT22;53641;44.274;19.890;2023-11-19T11:40:13;12.60;68.40
66728;DHT22;53641;44.274;19.890;2023-11-19T11:42:39;12.70;67.80
66728;DHT22;53641;44.274;19.890;2023-11-19T11:45:08;12.80;67.80
66728;DHT22;53641;44.274;19.890;2023-11-19T11:50:20;12.80;67.10
66728;DHT22;53641;44.274;19.890;2023-11-19T11:55:36;12.60;65.60
66728;DHT22;53641;44.274;19.890;2023-11-19T11:58:02;12.60;65.80
66728;DHT22;53641;44.274;19.890;2023-11-19T12:00:30;12.60;65.50
66728;DHT22;53641;44.274;19.890;2023-11-19T12:02:56;12.70;67.50
66728;DHT22;53641;44.274;19.890;2023-11-19T12:05:22;12.50;66.20
66728;DHT22;53641;44.274;19.890;2023-11-19T12:07:54;12.60;66.30
66728;DHT22;53641;44.274;19.890;2023-11-19T12:10:20;12.60;66.50
66728;DHT22;53641;44.274;19.890;2023-11-19T12:12:47;12.70;67.00
66728;DHT22;53641;44.274;19.890;2023-11-19T12:15:13;12.80;67.20
66728;DHT22;53641;44.274;19.890;2023-11-19T12:17:44;12.80;67.70
66728;DHT22;53641;44.274;19.890;2023-11-19T12:20:14;12.90;67.20
66728;DHT22;53641;44.274;19.890;2023-11-19T12:22:41;13.00;68.90
66728;DHT22;53641;44.274;19.890;2023-11-19T12:25:07;12.90;67.40
66728;DHT22;53641;44.274;19.890;2023-11-19T12:27:34;13.00;66.80
66728;DHT22;53641;44.274;19.890;2023-11-19T12:30:01;12.80;65.90
66728;DHT22;53641;44.274;19.890;2023-11-19T12:32:40;12.90;65.30
66728;DHT22;53641;44.274;19.890;2023-11-19T12:35:06;12.90;65.80
66728;DHT22;53641;44.274;19.890;2023-11-19T12:37:32;12.90;66.00
66728;DHT22;53641;44.274;19.890;2023-11-19T12:39:58;13.00;66.40
66728;DHT22;53641;44.274;19.890;2023-11-19T12:42:36;12.60;65.50
66728;DHT22;53641;44.274;19.890;2023-11-19T12:45:02;12.50;65.80
66728;DHT22;53641;44.274;19.890;2023-11-19T12:47:32;12.50;66.20
66728;DHT22;53641;44.274;19.890;2023-11-19T12:49:58;12.40;66.50
66728;DHT22;53641;44.274;19.890;2023-11-19T12:52:23;12.30;66.60
66728;DHT22;53641;44.274;19.890;2023-11-19T12:54:49;12.40;66.80
66728;DHT22;53641;44.274;19.890;2023-11-19T12:57:15;12.30;66.50
66728;DHT22;53641;44.274;19.890;2023-11-19T12:59:41;12.20;67.10
66728;DHT22;53641;44.274;19.890;2023-11-19T13:02:06;12.10;68.00
66728;DHT22;53641;44.274;19.890;2023-11-19T13:04:33;12.00;69.10
66728;DHT22;53641;44.274;19.890;2023-11-19T13:06:59;12.10;68.20
66728;DHT22;53641;44.274;19.890;2023-11-19T13:09:28;12.20;68.20
66728;DHT22;53641;44.274;19.890;2023-11-19T13:11:54;12.30;66.80
66728;DHT22;53641;44.274;19.890;2023-11-19T13:14:20;12.40;66.30
66728;DHT22;53641;44.274;19.890;2023-11-19T13:16:46;12.40;66.40
66728;DHT22;53641;44.274;19.890;2023-11-19T13:19:12;12.50;67.10
66728;DHT22;53641;44.274;19.890;2023-11-19T13:21:38;12.50;66.80
66728;DHT22;53641;44.274;19.890;2023-11-19T13:24:05;12.50;66.80
66728;DHT22;53641;44.274;19.890;2023-11-19T13:26:31;12.70;66.20
66728;DHT22;53641;44.274;19.890;2023-11-19T13:28:56;12.60;67.90
66728;DHT22;53641;44.274;19.890;2023-11-19T13:31:22;12.70;68.60
66728;DHT22;53641;44.274;19.890;2023-11-19T13:33:48;12.50;67.50
66728;DHT22;53641;44.274;19.890;2023-11-19T13:36:14;12.30;66.90
66728;DHT22;53641;44.274;19.890;2023-11-19T13:38:39;12.30;67.70
66728;DHT22;53641;44.274;19.890;2023-11-19T13:41:07;12.20;67.80
66728;DHT22;53641;44.274;19.890;2023-11-19T13:43:35;12.10;67.70
66728;DHT22;53641;44.274;19.890;2023-11-19T13:46:00;12.10;67.20
66728;DHT22;53641;44.274;19.890;2023-11-19T13:48:26;12.00;67.90
66728;DHT22;53641;44.274;19.890;2023-11-19T13:50:54;12.10;68.80
66728;DHT22;53641;44.274;19.890;2023-11-19T13:53:20;12.10;67.40
66728;DHT22;53641;44.274;19.890;2023-11-19T13:55:46;12.10;68.80
66728;DHT22;53641;44.274;19.890;2023-11-19T13:58:14;12.00;69.10
66728;DHT22;53641;44.274;19.890;2023-11-19T14:00:40;11.90;69.50
66728;DHT22;53641;44.274;19.890;2023-11-19T14:03:07;12.10;69.20
66728;DHT22;53641;44.274;19.890;2023-11-19T14:05:33;11.90;68.70
66728;DHT22;53641;44.274;19.890;2023-11-19T14:07:58;11.80;69.80
66728;DHT22;53641;44.274;19.890;2023-11-19T14:10:24;11.70;69.70
66728;DHT22;53641;44.274;19.890;2023-11-19T14:12:50;11.70;69.80
66728;DHT22;53641;44.274;19.890;2023-11-19T14:15:15;11.80;69.30
66728;DHT22;53641;44.274;19.890;2023-11-19T14:17:44;11.80;69.20
66728;DHT22;53641;44.274;19.890;2023-11-19T14:20:10;11.80;69.80
66728;DHT22;53641;44.274;19.890;2023-11-19T14:22:44;11.80;69.60
66728;DHT22;53641;44.274;19.890;2023-11-19T14:25:10;11.60;69.70
66728;DHT22;53641;44.274;19.890;2023-11-19T14:27:36;11.50;69.40
66728;DHT22;53641;44.274;19.890;2023-11-19T14:30:04;11.40;69.80
66728;DHT22;53641;44.274;19.890;2023-11-19T14:32:30;11.20;73.60
66728;DHT22;53641;44.274;19.890;2023-11-19T14:34:56;11.00;74.90
66728;DHT22;53641;44.274;19.890;2023-11-19T14:37:22;10.70;75.60
66728;DHT22;53641;44.274;19.890;2023-11-19T14:39:47;10.60;76.50
66728;DHT22;53641;44.274;19.890;2023-11-19T14:42:15;10.50;76.70
66728;DHT22;53641;44.274;19.890;2023-11-19T14:44:41;10.40;77.50
66728;DHT22;53641;44.274;19.890;2023-11-19T14:47:06;10.20;77.60
66728;DHT22;53641;44.274;19.890;2023-11-19T14:49:32;10.20;78.40
66728;DHT22;53641;44.274;19.890;2023-11-19T14:51:59;10.20;78.90
66728;DHT22;53641;44.274;19.890;2023-11-19T14:54:25;10.30;78.60
66728;DHT22;53641;44.274;19.890;2023-11-19T14:56:51;10.20;78.60
66728;DHT22;53641;44.274;19.890;2023-11-19T14:59:17;10.10;79.40
66728;DHT22;53641;44.274;19.890;2023-11-19T15:01:46;10.00;79.80
66728;DHT22;53641;44.274;19.890;2023-11-19T15:04:12;9.90;79.90
66728;DHT22;53641;44.274;19.890;2023-11-19T15:06:37;9.90;80.40
66728;DHT22;53641;44.274;19.890;2023-11-19T15:09:03;10.00;79.90
66728;DHT22;53641;44.274;19.890;2023-11-19T15:11:29;10.00;80.40
66728;DHT22;53641;44.274;19.890;2023-11-19T15:13:55;10.00;80.00
66728;DHT22;53641;44.274;19.890;2023-11-19T15:16:21;9.90;80.00
66728;DHT22;53641;44.274;19.890;2023-11-19T15:18:56;9.80;80.20
66728;DHT22;53641;44.274;19.890;2023-11-19T15:21:25;9.80;80.80
66728;DHT22;53641;44.274;19.890;2023-11-19T15:23:51;9.80;80.40
66728;DHT22;53641;44.274;19.890;2023-11-19T15:26:17;9.80;81.30